Time;durP1;ratioP1;P1;durP2;ratioP2;P2;SDS_P1;SDS_P2;PMS_P1;PMS_P2;Temp;Humidity;BMP_temperature;BMP_pressure;BME280_temperature;BME280_humidity;BME280_pressure;Samples;Min_cycle;Max_cycle;Signal;HPM_P1;HPM_P2
2021/07/19 00:00:17;;;;;;;6.70;3.37;;;;;;;20.60;76.10;156661.28;5062038;28;20456;-84
2021/07/19 00:02:54;;;;;;;4.60;3.43;;;;;;;20.61;75.00;156663.91;5068458;28;20446;-84
2021/07/19 00:05:31;;;;;;;3.53;3.20;;;;;;;20.61;74.86;156663.91;5075835;28;20525;-84
2021/07/19 00:08:06;;;;;;;4.10;3.70;;;;;;;20.57;77.67;156652.16;5075550;28;20457;-84
2021/07/19 00:10:41;;;;;;;4.17;3.33;;;;;;;20.55;75.99;156646.91;5076530;28;20449;-83
2021/07/19 00:13:17;;;;;;;6.23;3.73;;;;;;;20.56;76.59;156649.53;5083412;28;20438;-83
2021/07/19 00:15:53;;;;;;;3.50;3.20;;;;;;;20.46;76.35;156623.47;5075660;28;20457;-84
2021/07/19 00:18:29;;;;;;;4.00;3.20;;;;;;;20.38;76.86;156603.91;5085438;28;20446;-83
2021/07/19 00:21:06;;;;;;;3.50;3.20;;;;;;;20.39;76.23;156605.16;5064115;28;20449;-83
2021/07/19 00:23:41;;;;;;;4.00;3.20;;;;;;;20.38;76.68;156603.91;5094198;28;20440;-83
2021/07/19 00:26:19;;;;;;;4.20;3.80;;;;;;;20.37;76.59;156601.28;5095172;28;20421;-83
2021/07/19 00:28:55;;;;;;;3.63;3.30;;;;;;;20.37;76.75;156599.97;5077315;28;20461;-83
2021/07/19 00:31:34;;;;;;;5.77;4.00;;;;;;;20.38;76.66;156602.59;5094971;28;20806;-84
2021/07/19 00:34:09;;;;;;;5.10;3.67;;;;;;;20.36;77.05;156597.38;5094303;28;20441;-83
2021/07/19 00:36:49;;;;;;;4.20;3.80;;;;;;;20.27;77.78;156573.88;5061335;28;20437;-83
2021/07/19 00:39:25;;;;;;;3.90;3.60;;;;;;;20.19;78.21;156552.97;5073999;28;21071;-83
2021/07/19 00:42:01;;;;;;;5.23;3.60;;;;;;;20.19;78.58;156554.28;5055864;28;20442;-84
2021/07/19 00:44:37;;;;;;;4.37;3.97;;;;;;;20.21;78.38;156559.50;5054960;28;20469;-84
2021/07/19 00:47:13;;;;;;;4.30;3.87;;;;;;;20.01;79.41;156507.34;5060960;28;20473;-83
2021/07/19 00:49:49;;;;;;;4.17;3.77;;;;;;;19.96;79.48;156495.56;5094778;28;20448;-83
2021/07/19 00:52:25;;;;;;;4.30;3.50;;;;;;;20.02;78.68;156511.22;5076627;28;20472;-83
2021/07/19 00:55:02;;;;;;;4.60;3.57;;;;;;;19.97;79.39;156496.88;5076597;28;20483;-83
2021/07/19 00:57:39;;;;;;;4.97;4.47;;;;;;;19.90;79.62;156479.97;5077565;28;20442;-83
2021/07/19 01:00:15;;;;;;;4.20;3.80;;;;;;;19.92;83.05;156483.84;5076163;28;20480;-84
2021/07/19 01:02:52;;;;;;;3.97;3.63;;;;;;;19.79;80.45;156451.28;5056214;28;20548;-83
2021/07/19 01:05:28;;;;;;;4.30;3.70;;;;;;;19.75;81.79;156439.56;5088447;28;20477;-83
2021/07/19 01:08:08;;;;;;;4.20;3.70;;;;;;;19.64;84.07;156410.84;5060149;28;20987;-83
2021/07/19 01:10:44;;;;;;;4.73;3.63;;;;;;;19.57;83.60;156392.56;5094761;28;20445;-83
2021/07/19 01:13:20;;;;;;;4.40;4.00;;;;;;;19.50;84.71;156374.34;5077258;28;20532;-83
2021/07/19 01:15:58;;;;;;;3.80;3.50;;;;;;;19.46;84.24;156365.19;5060508;28;20804;-83
2021/07/19 01:18:35;;;;;;;3.87;3.47;;;;;;;19.38;86.40;156345.66;5060255;28;20881;-83
2021/07/19 01:21:44;;;;;;;4.47;3.73;;;;;;;19.31;87.18;156326.06;5089803;28;20437;-83
2021/07/19 01:24:27;;;;;;;4.40;4.00;;;;;;;19.24;88.33;156307.84;5048567;28;20450;-83
2021/07/19 01:27:36;;;;;;;4.33;3.90;;;;;;;19.19;88.11;156296.13;5055810;28;20473;-83
2021/07/19 01:30:14;;;;;;;4.40;3.97;;;;;;;19.11;87.56;156273.94;5075630;28;20461;-83
2021/07/19 01:32:50;;;;;;;4.60;3.53;;;;;;;19.10;85.86;156271.31;5055466;28;20434;-83
2021/07/19 01:35:26;;;;;;;4.40;4.00;;;;;;;19.06;84.63;156262.19;5077176;28;20803;-83
2021/07/19 01:38:04;;;;;;;5.00;3.77;;;;;;;19.04;84.14;156255.66;5066159;28;20907;-83
2021/07/19 01:40:44;;;;;;;4.27;3.70;;;;;;;19.04;85.41;156256.97;5040117;28;20458;-83
2021/07/19 01:43:20;;;;;;;4.20;3.80;;;;;;;18.98;85.54;156240.06;5040058;28;20442;-83
2021/07/19 01:45:59;;;;;;;4.30;3.90;;;;;;;18.95;85.14;156232.25;5040499;28;20468;-83
2021/07/19 01:48:38;;;;;;;3.60;3.30;;;;;;;18.94;85.98;156230.94;5071281;28;20461;-84
2021/07/19 01:51:15;;;;;;;4.23;3.83;;;;;;;18.88;86.28;156215.28;5076953;28;20417;-83
2021/07/19 01:54:02;;;;;;;4.40;4.00;;;;;;;18.89;88.27;156217.91;5052259;28;20823;-83
2021/07/19 01:56:39;;;;;;;4.87;3.83;;;;;;;18.81;87.74;156197.06;5076962;28;20484;-83
2021/07/19 01:59:15;;;;;;;4.47;4.00;;;;;;;18.78;87.15;156190.53;5076298;28;20446;-83
2021/07/19 02:02:05;;;;;;;4.03;3.63;;;;;;;18.74;86.82;156178.84;5087265;28;20436;-83
2021/07/19 02:04:41;;;;;;;4.07;3.60;;;;;;;18.77;87.87;156186.66;5076897;28;20536;-83
2021/07/19 02:07:17;;;;;;;3.90;3.50;;;;;;;18.75;88.67;156181.41;5073289;28;20465;-83
2021/07/19 02:09:56;;;;;;;4.20;3.80;;;;;;;18.76;90.18;156184.03;5054153;28;20476;-83
2021/07/19 02:12:45;;;;;;;4.00;3.60;;;;;;;18.75;88.81;156181.41;5059445;28;20449;-83
2021/07/19 02:15:23;;;;;;;4.27;3.87;;;;;;;18.73;88.40;156176.22;5074384;28;20441;-83
2021/07/19 02:18:03;;;;;;;4.40;3.73;;;;;;;18.71;89.28;156172.31;5096916;28;20469;-83
2021/07/19 02:20:40;;;;;;;5.10;4.10;;;;;;;18.68;90.48;156164.50;5092885;28;20956;-83
2021/07/19 02:23:17;;;;;;;4.20;3.90;;;;;;;18.66;89.93;156159.31;5090219;28;20444;-83
2021/07/19 02:25:56;;;;;;;4.53;3.73;;;;;;;18.68;93.17;156164.50;5075123;28;20449;-83
2021/07/19 02:28:33;;;;;;;3.90;3.50;;;;;;;18.62;90.62;156147.53;5058766;28;20481;-83
2021/07/19 02:31:12;;;;;;;4.40;3.93;;;;;;;18.58;91.50;156137.13;5073913;28;20409;-83
2021/07/19 02:33:52;;;;;;;6.10;4.33;;;;;;;18.60;90.89;156142.34;5055047;28;20465;-83
2021/07/19 02:36:33;;;;;;;7.50;4.10;;;;;;;18.55;90.23;156130.63;5043632;28;20444;-83
2021/07/19 02:39:10;;;;;;;4.30;3.90;;;;;;;18.58;91.62;156137.13;5074271;28;20438;-83
2021/07/19 02:41:49;;;;;;;4.17;3.77;;;;;;;18.59;91.00;156141.03;5059693;28;20452;-83
2021/07/19 02:44:27;;;;;;;4.57;4.17;;;;;;;18.58;91.28;156137.13;5075169;28;20437;-83
2021/07/19 02:47:18;;;;;;;4.90;4.50;;;;;;;18.56;92.37;156131.94;5044915;28;20454;-83
2021/07/19 02:49:57;;;;;;;4.47;4.03;;;;;;;18.49;89.94;156113.66;5058874;28;20937;-83
2021/07/19 02:52:32;;;;;;;4.03;3.60;;;;;;;18.44;90.80;156101.91;5092879;28;20445;-84
2021/07/19 02:55:09;;;;;;;4.50;4.10;;;;;;;18.38;91.11;156086.28;5062825;28;20927;-84
2021/07/19 02:57:53;;;;;;;4.73;4.23;;;;;;;18.33;91.66;156071.94;5063010;28;20425;-83
2021/07/19 03:00:29;;;;;;;5.83;4.47;;;;;;;18.27;90.53;156058.91;5062760;28;20861;-84
2021/07/19 03:03:10;;;;;;;4.83;4.40;;;;;;;18.25;91.38;156053.72;5083738;28;20474;-84
2021/07/19 03:05:51;;;;;;;5.40;4.10;;;;;;;18.21;91.69;156042.00;5079974;28;20874;-84
2021/07/19 03:08:34;;;;;;;5.33;4.03;;;;;;;18.20;91.54;156039.38;5076210;28;20854;-84
2021/07/19 03:11:19;;;;;;;4.70;4.30;;;;;;;18.21;92.66;156043.28;5077200;28;20931;-83
2021/07/19 03:13:59;;;;;;;5.00;3.93;;;;;;;18.13;92.46;156022.50;5052949;28;20453;-84
2021/07/19 03:16:36;;;;;;;5.70;4.33;;;;;;;18.14;93.31;156025.06;5076225;28;20414;-84
2021/07/19 03:19:15;;;;;;;5.23;4.43;;;;;;;18.11;93.65;156017.25;5052501;28;20441;-83
2021/07/19 03:21:55;;;;;;;4.07;3.67;;;;;;;18.08;94.91;156008.16;5062710;28;20444;-84
2021/07/19 03:24:45;;;;;;;5.03;4.20;;;;;;;18.02;94.12;155992.53;5063273;28;20436;-84
2021/07/19 03:27:23;;;;;;;4.40;4.00;;;;;;;18.00;94.23;155988.59;5062285;28;20974;-84
2021/07/19 03:30:04;;;;;;;5.20;4.30;;;;;;;17.99;95.91;155986.00;5062356;28;21180;-83
2021/07/19 03:32:49;;;;;;;6.20;4.40;;;;;;;17.91;93.69;155965.16;5047202;28;20454;-83
2021/07/19 03:35:32;;;;;;;4.67;4.17;;;;;;;17.93;94.04;155970.38;5047149;28;20449;-84
2021/07/19 03:38:15;;;;;;;4.50;3.87;;;;;;;17.92;95.01;155967.78;5079177;28;20898;-84
2021/07/19 03:41:14;;;;;;;7.83;4.77;;;;;;;17.88;95.56;155957.34;5093379;28;20523;-84
2021/07/19 03:43:53;;;;;;;5.23;4.57;;;;;;;17.88;94.34;155956.03;5079167;28;20421;-84
2021/07/19 03:46:29;;;;;;;4.73;4.30;;;;;;;17.84;94.22;155946.97;5042308;28;20442;-84
2021/07/19 03:49:07;;;;;;;4.37;3.73;;;;;;;17.89;93.38;155959.97;5068222;28;20556;-84
2021/07/19 03:51:43;;;;;;;5.93;4.20;;;;;;;17.91;92.74;155963.88;5074035;28;20437;-84
2021/07/19 03:54:20;;;;;;;5.00;4.17;;;;;;;17.88;93.21;155957.34;5079028;28;20983;-84
2021/07/19 03:56:56;;;;;;;4.00;3.70;;;;;;;17.88;95.81;155957.34;5060962;28;20441;-83
2021/07/19 03:59:33;;;;;;;4.37;3.77;;;;;;;17.85;94.18;155949.53;5073195;28;20445;-83
2021/07/19 04:02:13;;;;;;;4.90;4.40;;;;;;;17.87;94.17;155954.72;5096013;28;20440;-84
2021/07/19 04:05:01;;;;;;;4.63;4.23;;;;;;;17.89;94.45;155958.66;5074114;28;20806;-84
2021/07/19 04:07:38;;;;;;;5.50;4.70;;;;;;;17.85;93.10;155949.53;5061926;28;20559;-83
2021/07/19 04:10:17;;;;;;;5.17;4.67;;;;;;;17.98;94.40;155983.38;5061964;28;20444;-84
2021/07/19 04:12:56;;;;;;;11.60;4.77;;;;;;;18.00;93.71;155988.59;5061793;28;20442;-84
2021/07/19 04:15:38;;;;;;;5.13;3.50;;;;;;;18.00;93.18;155987.31;5078864;28;20441;-84
2021/07/19 04:18:15;;;;;;;5.30;4.50;;;;;;;18.09;92.66;156010.72;5058865;28;20853;-84
2021/07/19 04:21:00;;;;;;;4.90;4.40;;;;;;;18.09;92.51;156012.03;5041814;28;20478;-84
2021/07/19 04:23:41;;;;;;;4.77;4.30;;;;;;;18.23;92.19;156048.53;5041717;28;20426;-84
2021/07/19 04:26:30;;;;;;;4.93;4.40;;;;;;;18.28;92.03;156060.22;5056735;28;20442;-84
2021/07/19 04:29:21;;;;;;;4.93;4.33;;;;;;;18.41;91.85;156092.78;5077701;28;20481;-84
2021/07/19 04:31:58;;;;;;;4.37;3.97;;;;;;;18.55;91.25;156129.31;5076481;28;20449;-84
2021/07/19 04:34:38;;;;;;;5.37;4.87;;;;;;;19.11;88.32;156273.94;5055618;28;20454;-84
2021/07/19 04:37:17;;;;;;;6.47;5.77;;;;;;;19.56;86.47;156391.31;5086345;28;20449;-84
2021/07/19 04:39:56;;;;;;;4.70;4.30;;;;;;;20.03;83.06;156513.88;5061013;28;20845;-84
2021/07/19 04:42:39;;;;;;;4.80;4.30;;;;;;;20.46;81.23;156624.78;5058281;28;20442;-84
2021/07/19 04:45:18;;;;;;;4.50;4.10;;;;;;;20.84;79.07;156721.28;5081319;28;20438;-84
2021/07/19 04:47:54;;;;;;;4.43;4.03;;;;;;;21.15;77.76;156802.25;5070283;28;20461;-84
2021/07/19 04:50:29;;;;;;;4.70;4.30;;;;;;;21.38;76.20;156862.28;5075755;28;20460;-84
2021/07/19 04:53:23;;;;;;;6.03;4.37;;;;;;;21.41;76.00;156868.81;5061026;28;20811;-84
2021/07/19 04:56:00;;;;;;;5.23;4.17;;;;;;;21.53;76.98;156901.44;5076886;28;20539;-84
2021/07/19 04:58:38;;;;;;;5.20;4.40;;;;;;;21.82;74.82;156975.84;5074568;28;20445;-85
2021/07/19 05:01:14;;;;;;;5.43;4.13;;;;;;;21.64;74.73;156928.84;5087643;28;20470;-85
2021/07/19 05:03:53;;;;;;;5.20;4.63;;;;;;;20.92;76.88;156742.16;5074072;28;20407;-84
2021/07/19 05:06:30;;;;;;;4.90;4.40;;;;;;;20.61;78.87;156662.59;5040777;28;20801;-85
2021/07/19 05:09:06;;;;;;;5.47;4.43;;;;;;;20.69;78.60;156682.16;5072315;28;21145;-85
2021/07/19 05:11:43;;;;;;;4.93;4.40;;;;;;;20.69;79.66;156682.16;5075913;28;20463;-85
2021/07/19 05:14:20;;;;;;;5.03;4.10;;;;;;;21.15;77.65;156803.53;5092466;28;20939;-85
2021/07/19 05:16:57;;;;;;;4.80;4.30;;;;;;;21.11;77.34;156791.81;5089360;28;20434;-85
2021/07/19 05:19:33;;;;;;;5.03;4.50;;;;;;;20.64;79.93;156671.72;5091948;28;20449;-93
2021/07/19 05:22:10;;;;;;;6.63;4.60;;;;;;;20.68;79.87;156679.56;5093762;28;20452;-85
2021/07/19 05:24:45;;;;;;;4.53;4.13;;;;;;;20.63;79.54;156669.09;5062113;28;20445;-85
2021/07/19 05:27:21;;;;;;;4.57;4.17;;;;;;;20.44;81.14;156618.22;5042699;28;20453;-85
2021/07/19 05:29:59;;;;;;;5.97;4.60;;;;;;;20.13;82.55;156537.31;5075119;28;20477;-85
2021/07/19 05:32:34;;;;;;;5.20;4.70;;;;;;;20.03;83.14;156512.53;5075411;28;20818;-85
2021/07/19 05:35:10;;;;;;;5.50;5.00;;;;;;;20.19;83.26;156554.28;5064562;28;20450;-85
2021/07/19 05:37:46;;;;;;;6.73;4.83;;;;;;;19.98;83.01;156500.81;5068231;28;20452;-85
2021/07/19 05:40:22;;;;;;;8.50;6.43;;;;;;;19.84;84.27;156463.00;5074785;28;20978;-85
2021/07/19 05:42:58;;;;;;;5.87;5.33;;;;;;;19.71;84.80;156429.09;5079916;28;20429;-85
2021/07/19 05:45:35;;;;;;;5.57;5.07;;;;;;;19.63;85.09;156408.22;5089500;28;20800;-85
2021/07/19 05:48:10;;;;;;;6.27;4.40;;;;;;;19.73;84.58;156434.28;5065383;28;20457;-85
2021/07/19 05:50:46;;;;;;;12.93;4.83;;;;;;;19.74;84.50;156436.91;5070716;28;20457;-85
2021/07/19 05:53:21;;;;;;;5.43;4.50;;;;;;;20.38;82.12;156603.91;5067113;28;20444;-84
2021/07/19 05:55:57;;;;;;;6.63;4.70;;;;;;;20.61;80.95;156662.59;5094240;28;20779;-85
2021/07/19 05:58:32;;;;;;;6.07;4.90;;;;;;;20.89;79.47;156734.38;5072897;28;20437;-85
2021/07/19 06:01:09;;;;;;;7.77;5.37;;;;;;;20.68;80.86;156679.56;5103883;28;20919;-85
2021/07/19 06:03:45;;;;;;;4.90;4.40;;;;;;;20.61;80.91;156662.59;5093560;28;20788;-85
2021/07/19 06:06:21;;;;;;;6.60;4.20;;;;;;;20.79;79.79;156708.22;5075182;28;20437;-85
2021/07/19 06:08:56;;;;;;;6.03;5.20;;;;;;;21.18;78.67;156810.09;5074428;28;20529;-85
2021/07/19 06:11:32;;;;;;;5.00;4.50;;;;;;;21.16;78.75;156804.84;5065596;28;20535;-85
2021/07/19 06:14:07;;;;;;;5.97;5.20;;;;;;;22.10;74.25;157047.72;5099265;28;20445;-85
2021/07/19 06:16:44;;;;;;;11.97;5.00;;;;;;;22.97;72.32;157273.75;5075012;28;20453;-86
2021/07/19 06:19:20;;;;;;;8.43;4.53;;;;;;;23.71;68.71;157465.94;5098244;28;20481;-86
2021/07/19 06:21:55;;;;;;;5.30;4.80;;;;;;;24.14;67.94;157578.47;5062153;28;20474;-86
2021/07/19 06:24:31;;;;;;;5.40;4.90;;;;;;;24.19;66.45;157591.53;5097554;28;20468;-86
2021/07/19 06:27:07;;;;;;;7.87;5.03;;;;;;;23.86;67.35;157505.16;5076105;28;20878;-86
2021/07/19 06:29:42;;;;;;;4.73;3.90;;;;;;;24.38;67.19;157638.59;5079131;28;20468;-86
2021/07/19 06:32:19;;;;;;;6.40;4.60;;;;;;;24.46;66.35;157659.53;5098080;28;20440;-87
2021/07/19 06:34:55;;;;;;;5.67;5.10;;;;;;;24.38;65.34;157639.91;5086955;28;20446;-87
2021/07/19 06:37:30;;;;;;;6.83;4.60;;;;;;;24.53;65.54;157677.81;5085861;28;20437;-87
2021/07/19 06:40:08;;;;;;;4.67;4.27;;;;;;;24.98;65.59;157795.63;5066204;28;20448;-87
2021/07/19 06:42:44;;;;;;;5.23;4.73;;;;;;;25.10;63.32;157827.00;5106060;28;20433;-87
2021/07/19 06:45:19;;;;;;;4.73;4.23;;;;;;;25.51;63.23;157931.75;5073053;28;20552;-88
2021/07/19 06:47:56;;;;;;;7.10;4.43;;;;;;;25.70;63.59;157981.50;5111311;28;20448;-88
2021/07/19 06:50:32;;;;;;;7.00;4.63;;;;;;;26.34;61.00;158149.16;5082122;28;20947;-88
2021/07/19 06:53:08;;;;;;;5.67;4.33;;;;;;;26.45;61.30;158177.94;5088411;28;20444;-88
2021/07/19 06:55:43;;;;;;;5.10;4.60;;;;;;;26.69;60.43;158238.22;5094704;28;20440;-88
2021/07/19 06:58:19;;;;;;;5.57;4.97;;;;;;;27.02;57.69;158324.72;5069961;28;20441;-88
2021/07/19 07:00:54;;;;;;;5.23;4.73;;;;;;;26.95;58.16;158306.38;5098542;28;20457;-89
2021/07/19 07:03:31;;;;;;;5.03;4.30;;;;;;;26.78;58.89;158261.81;5071388;28;20440;-89
2021/07/19 07:06:07;;;;;;;6.00;4.93;;;;;;;26.57;57.40;158208.06;5090367;28;20437;-88
2021/07/19 07:08:42;;;;;;;4.90;4.40;;;;;;;27.30;57.41;158398.06;5076399;28;20496;-89
2021/07/19 07:11:18;;;;;;;5.33;4.83;;;;;;;27.02;57.75;158324.72;5079972;28;21073;-89
2021/07/19 07:13:53;;;;;;;4.97;4.53;;;;;;;27.42;56.67;158429.59;5097475;28;20455;-89
2021/07/19 07:16:29;;;;;;;5.27;4.77;;;;;;;27.37;55.28;158416.44;5068251;28;21183;-89
2021/07/19 07:19:06;;;;;;;6.07;5.57;;;;;;;27.34;55.89;158408.56;5079547;28;20854;-89
2021/07/19 07:21:41;;;;;;;5.47;5.03;;;;;;;27.99;54.24;158576.34;5080176;28;20472;-89
2021/07/19 07:24:17;;;;;;;6.63;4.07;;;;;;;28.60;53.58;158735.06;5080757;28;20441;-89
2021/07/19 07:26:52;;;;;;;5.97;5.37;;;;;;;27.91;54.75;158556.69;5078054;28;20441;-89
2021/07/19 07:29:28;;;;;;;5.03;4.63;;;;;;;27.71;53.01;158504.28;5084441;28;20481;-89
2021/07/19 07:32:04;;;;;;;5.23;4.73;;;;;;;28.49;53.71;158707.53;5078549;28;20983;-90
2021/07/19 07:34:41;;;;;;;5.97;5.37;;;;;;;28.26;53.57;158647.22;5078727;28;20480;-90
2021/07/19 07:37:16;;;;;;;5.60;5.00;;;;;;;28.60;53.22;158736.38;5077997;28;20457;-90
2021/07/19 07:39:52;;;;;;;5.30;4.80;;;;;;;29.50;50.92;158969.97;5096862;28;20433;-90
2021/07/19 07:42:29;;;;;;;5.37;4.60;;;;;;;29.39;50.01;158942.41;5060112;28;20938;-89
2021/07/19 07:45:05;;;;;;;5.10;4.70;;;;;;;29.11;50.30;158868.91;5072134;28;20453;-91
2021/07/19 07:47:42;;;;;;;5.63;5.13;;;;;;;29.27;50.47;158909.63;5078862;28;20454;-90
2021/07/19 07:50:19;;;;;;;5.40;4.90;;;;;;;28.73;50.61;158769.19;5097834;28;20476;-90
2021/07/19 07:52:54;;;;;;;6.03;5.43;;;;;;;28.73;50.75;158770.53;5093569;28;20429;-91
2021/07/19 07:55:30;;;;;;;5.13;4.73;;;;;;;28.69;50.60;158760.06;5098152;28;20433;-90
2021/07/19 07:58:07;;;;;;;5.53;5.10;;;;;;;28.75;51.07;158775.75;5077777;28;20449;-90
2021/07/19 08:00:42;;;;;;;6.30;5.03;;;;;;;28.18;51.50;158626.22;5078891;28;20441;-90
2021/07/19 08:03:18;;;;;;;5.80;5.30;;;;;;;29.05;52.75;158851.84;5073782;28;20444;-90
2021/07/19 08:05:55;;;;;;;5.93;4.80;;;;;;;30.33;49.43;159185.28;5097385;28;20447;-91
2021/07/19 08:08:30;;;;;;;7.30;4.50;;;;;;;29.72;48.62;159027.72;5090940;28;20882;-91
2021/07/19 08:11:06;;;;;;;5.30;4.80;;;;;;;29.86;48.13;159063.22;5063431;28;20768;-88
2021/07/19 08:13:42;;;;;;;5.47;4.97;;;;;;;30.30;47.98;159177.38;5072207;28;20449;-89
2021/07/19 08:16:18;;;;;;;5.23;4.73;;;;;;;29.91;48.69;159077.66;5097296;28;20777;-90
2021/07/19 08:18:54;;;;;;;5.60;5.10;;;;;;;30.38;48.40;159199.75;5061641;28;20437;-91
2021/07/19 08:21:31;;;;;;;5.50;5.10;;;;;;;28.70;51.28;158761.38;5080407;28;20426;-91
2021/07/19 08:24:07;;;;;;;5.83;5.43;;;;;;;28.77;51.20;158779.72;5081422;28;20532;-91
2021/07/19 08:26:42;;;;;;;5.43;4.93;;;;;;;28.64;50.79;158746.94;5078440;28;20431;-91
2021/07/19 08:29:18;;;;;;;5.33;4.93;;;;;;;29.47;49.81;158962.09;5071898;28;20998;-88
2021/07/19 08:31:55;;;;;;;9.33;5.03;;;;;;;30.38;47.66;159198.44;5078319;28;20445;-91
2021/07/19 08:34:30;;;;;;;6.53;5.30;;;;;;;30.26;50.11;159168.22;5080414;28;20951;-88
2021/07/19 08:37:07;;;;;;;8.07;5.47;;;;;;;29.80;49.74;159048.78;5096453;28;20433;-89
2021/07/19 08:39:43;;;;;;;5.77;5.23;;;;;;;29.59;49.35;158993.59;5094001;28;20577;-88
2021/07/19 08:42:19;;;;;;;8.50;5.03;;;;;;;30.23;47.09;159159.03;5071428;28;20472;-88
2021/07/19 08:44:55;;;;;;;6.47;5.97;;;;;;;29.73;48.75;159029.03;5082766;28;20793;-88
2021/07/19 08:47:30;;;;;;;6.13;5.40;;;;;;;29.70;49.08;159021.16;5079154;28;20429;-89
2021/07/19 08:50:07;;;;;;;5.67;5.23;;;;;;;30.02;48.12;159106.50;5057450;28;20481;-89
2021/07/19 08:52:47;;;;;;;5.97;5.37;;;;;;;29.23;49.44;158899.16;5071164;28;20437;-88
2021/07/19 08:55:24;;;;;;;6.67;5.90;;;;;;;29.02;49.76;158845.28;5097726;28;20433;-89
2021/07/19 08:58:01;;;;;;;6.80;5.10;;;;;;;29.90;48.58;159073.69;5087073;28;20449;-89
2021/07/19 09:00:37;;;;;;;5.83;5.20;;;;;;;29.78;48.77;159042.16;5095041;28;20452;-89
2021/07/19 09:03:13;;;;;;;6.50;5.90;;;;;;;29.72;48.58;159026.41;5081467;28;20437;-90
2021/07/19 09:05:48;;;;;;;6.63;6.10;;;;;;;28.75;52.77;158775.75;5078788;28;20446;-88
2021/07/19 09:08:25;;;;;;;6.70;6.10;;;;;;;28.20;51.95;158632.78;5087206;28;20449;-88
2021/07/19 09:11:09;;;;;;;5.67;5.17;;;;;;;28.01;52.04;158581.63;5077357;28;20473;-88
2021/07/19 09:13:58;;;;;;;7.00;5.60;;;;;;;28.88;52.85;158809.91;5095672;28;20469;-88
2021/07/19 09:16:40;;;;;;;5.97;5.47;;;;;;;28.57;51.72;158728.50;5067342;28;21077;-88
2021/07/19 09:19:17;;;;;;;6.20;5.70;;;;;;;28.65;54.35;158749.53;5095630;28;20813;-89
2021/07/19 09:21:56;;;;;;;6.00;5.50;;;;;;;28.86;51.07;158804.63;5071995;28;20480;-88
2021/07/19 09:24:33;;;;;;;6.63;5.80;;;;;;;28.29;53.69;158656.41;5094954;28;20845;-88
2021/07/19 09:27:09;;;;;;;5.93;5.40;;;;;;;28.22;54.66;158636.75;5073886;28;20448;-89
2021/07/19 09:29:44;;;;;;;5.57;5.07;;;;;;;28.25;51.81;158645.91;5089909;28;20873;-88
2021/07/19 09:32:20;;;;;;;5.90;5.30;;;;;;;28.39;51.72;158682.63;5062067;28;20441;-88
2021/07/19 09:34:55;;;;;;;9.50;5.97;;;;;;;28.16;51.75;158621.00;5078004;28;20445;-89
2021/07/19 09:37:31;;;;;;;6.20;5.60;;;;;;;28.15;51.69;158619.69;5083754;28;20516;-89
2021/07/19 09:40:09;;;;;;;6.07;5.57;;;;;;;28.00;52.29;158579.00;5087416;28;20457;-88
2021/07/19 09:42:45;;;;;;;5.57;5.07;;;;;;;27.78;56.65;158523.94;5067843;28;20437;-88
2021/07/19 09:45:29;;;;;;;5.37;4.87;;;;;;;28.15;51.77;158619.69;5077336;28;20460;-87
2021/07/19 09:48:06;;;;;;;5.70;4.93;;;;;;;28.88;50.50;158809.91;5094708;28;20445;-88
2021/07/19 09:50:45;;;;;;;5.50;5.00;;;;;;;28.19;50.75;158628.88;5071994;28;20473;-88
2021/07/19 09:53:32;;;;;;;5.80;5.20;;;;;;;28.59;50.33;158732.47;5072790;28;20525;-88
2021/07/19 09:56:15;;;;;;;6.50;6.00;;;;;;;28.79;50.90;158786.28;5092546;28;20948;-88
2021/07/19 09:58:52;;;;;;;5.83;5.23;;;;;;;27.90;50.98;158554.13;5086181;28;20433;-88
2021/07/19 10:01:28;;;;;;;6.20;5.70;;;;;;;27.71;53.12;158504.28;5053561;28;20449;-88
2021/07/19 10:04:08;;;;;;;6.90;6.20;;;;;;;27.69;53.33;158500.31;5093507;28;20442;-88
2021/07/19 10:06:45;;;;;;;6.90;6.20;;;;;;;28.28;50.86;158653.75;5088849;28;20444;-88
2021/07/19 10:09:22;;;;;;;7.03;6.33;;;;;;;27.66;52.60;158492.50;5084944;28;20457;-88
2021/07/19 10:12:04;;;;;;;6.00;5.40;;;;;;;27.78;55.81;158523.94;5089241;28;20433;-87
2021/07/19 10:14:40;;;;;;;6.00;5.50;;;;;;;27.70;55.21;158502.97;5087624;28;20441;-87
2021/07/19 10:17:16;;;;;;;5.60;5.20;;;;;;;28.10;53.14;158606.56;5065187;28;20457;-88
2021/07/19 10:19:51;;;;;;;7.60;6.80;;;;;;;27.61;53.86;158479.41;5076609;28;20437;-87
2021/07/19 10:22:27;;;;;;;5.53;5.03;;;;;;;27.72;57.52;158506.94;5060884;28;21044;-87
2021/07/19 10:25:03;;;;;;;7.13;5.00;;;;;;;27.11;56.44;158348.31;5107058;28;20934;-86
2021/07/19 10:27:40;;;;;;;6.00;5.50;;;;;;;26.39;57.33;158162.25;5067713;28;20468;-87
2021/07/19 10:30:16;;;;;;;5.80;5.30;;;;;;;27.17;55.67;158365.31;5094512;28;20477;-86
2021/07/19 10:32:51;;;;;;;6.23;5.50;;;;;;;27.48;55.15;158445.28;5093682;28;20536;-87
2021/07/19 10:35:27;;;;;;;6.90;5.40;;;;;;;27.86;54.64;158542.28;5058842;28;20480;-87
2021/07/19 10:38:06;;;;;;;8.40;5.67;;;;;;;27.59;51.18;158474.13;5088669;28;20468;-86
2021/07/19 10:40:44;;;;;;;6.23;5.20;;;;;;;27.55;52.38;158463.66;5094724;28;20445;-86
2021/07/19 10:43:21;;;;;;;5.53;5.00;;;;;;;27.46;54.36;158440.06;5094541;28;20445;-86
2021/07/19 10:45:58;;;;;;;5.83;5.33;;;;;;;27.03;54.39;158327.34;5094837;28;20935;-87
2021/07/19 10:48:34;;;;;;;6.90;5.63;;;;;;;26.33;57.34;158146.53;5072785;28;20482;-86
2021/07/19 10:51:18;;;;;;;5.27;4.50;;;;;;;26.84;54.94;158278.88;5067673;28;20471;-86
2021/07/19 10:53:54;;;;;;;6.70;5.13;;;;;;;27.30;53.78;158398.06;5073828;28;20451;-87
2021/07/19 10:56:30;;;;;;;5.20;4.80;;;;;;;27.21;54.33;158374.50;5052176;28;20464;-86
2021/07/19 10:59:07;;;;;;;5.00;4.60;;;;;;;27.57;52.72;158467.56;5100284;28;20954;-86
2021/07/19 11:01:51;;;;;;;5.67;4.90;;;;;;;26.78;52.85;158261.81;5109638;28;20480;-86
2021/07/19 11:04:27;;;;;;;5.00;4.50;;;;;;;27.03;56.68;158327.34;5075795;28;20449;-86
2021/07/19 11:07:11;;;;;;;5.60;5.10;;;;;;;26.61;55.12;158219.84;5090240;28;20525;-86
2021/07/19 11:09:46;;;;;;;7.33;5.40;;;;;;;26.61;55.10;158219.84;5093585;28;21058;-86
2021/07/19 11:12:24;;;;;;;5.70;5.20;;;;;;;26.38;54.46;158159.63;5066312;28;20437;-86
2021/07/19 11:15:10;;;;;;;5.47;5.00;;;;;;;26.18;55.20;158107.25;5095746;28;20441;-86
2021/07/19 11:17:45;;;;;;;5.90;5.30;;;;;;;26.07;54.67;158078.41;5093224;28;20956;-86
2021/07/19 11:20:21;;;;;;;5.03;4.63;;;;;;;26.31;53.04;158141.31;5101058;28;20842;-86
2021/07/19 11:23:01;;;;;;;4.87;4.40;;;;;;;26.65;57.57;158229.03;5078421;28;20441;-86
2021/07/19 11:25:42;;;;;;;5.37;4.97;;;;;;;26.84;52.13;158278.88;5093059;28;20443;-86
2021/07/19 11:28:20;;;;;;;6.73;5.00;;;;;;;26.69;52.24;158238.22;5091913;28;20434;-86
2021/07/19 11:31:05;;;;;;;4.80;4.23;;;;;;;26.15;54.05;158098.06;5094480;28;20466;-86
2021/07/19 11:33:43;;;;;;;4.97;4.53;;;;;;;26.24;54.32;158122.94;5105960;28;20441;-85
2021/07/19 11:36:22;;;;;;;5.13;4.60;;;;;;;26.09;52.85;158083.63;5096572;28;20441;-85
2021/07/19 11:39:02;;;;;;;5.07;4.47;;;;;;;26.11;52.52;158087.53;5097132;28;20433;-85
2021/07/19 11:41:40;;;;;;;4.40;4.00;;;;;;;26.02;52.54;158065.31;5112065;28;20465;-85
2021/07/19 11:44:17;;;;;;;4.73;3.73;;;;;;;26.56;51.60;158205.44;5110691;28;20449;-85
2021/07/19 11:46:54;;;;;;;7.27;4.27;;;;;;;26.59;54.78;158214.63;5074996;28;20465;-85
2021/07/19 11:49:29;;;;;;;4.97;4.47;;;;;;;26.68;56.00;158236.91;5105424;28;20473;-85
2021/07/19 11:52:09;;;;;;;4.40;4.00;;;;;;;26.97;52.31;158311.63;5088823;28;20433;-85
2021/07/19 11:54:51;;;;;;;3.90;3.50;;;;;;;27.06;49.89;158336.50;5076806;28;20848;-85
2021/07/19 11:57:27;;;;;;;5.10;4.63;;;;;;;26.51;51.60;158193.66;5096491;28;20433;-85
2021/07/19 12:00:06;;;;;;;5.60;4.17;;;;;;;26.57;53.30;158209.41;5110102;28;20436;-85
2021/07/19 12:02:58;;;;;;;4.43;3.67;;;;;;;26.45;51.95;158177.94;5096169;28;20418;-85
2021/07/19 12:05:35;;;;;;;4.40;4.00;;;;;;;26.68;53.34;158235.59;5107697;28;20450;-85
2021/07/19 12:08:12;;;;;;;3.83;3.53;;;;;;;26.75;55.44;158255.22;5092503;28;20425;-86
2021/07/19 12:10:59;;;;;;;7.23;4.60;;;;;;;26.82;56.29;158272.31;5072331;28;20488;-86
2021/07/19 12:13:36;;;;;;;3.80;3.17;;;;;;;26.84;49.22;158277.56;5058885;28;21014;-86